^^
Station Historical Data
Daily Summary for June 8, 2017 Units:  Both    English   Metric
« Previous Day
Next Day »
Daily Weekly Monthly Yearly Custom
  High: Low: Average:
Temperature: 69.3 °F /  20.7 °C 31.8 °F /  -0.1 °C 52.3 °F /  11.3 °C
Dew Point: 25.3 °F /  -3.7 °C 8.2 °F /  -13.2 °C 17.9 °F /  -7.8 °C
Humidity: 43% 12% 27%
Wind Speed: 10.1mph /  16.3km/h - 1.3mph /  2.1km/h
Wind Gust: 12.0mph /  19.3km/h - -
Wind- - ENE
Pressure: 30.41 in /  1029.7 hPa 30.28 in /  1025.3 hPa -
Precipitation: 0.00 in /  0 mm    
Historical Graphs
 
 
Tabular Data for June 8, 2017
Time Temperature Dew Point Pressure Wind Wind Speed Wind Gust Humidity Rainfall Rate (Hourly) solar Conditions
00:05 46.2 °F /  7.9 °C 18.0 °F /  -7.8 °C 30.31in /  1026.3hPa Calm     32% 0.00in /  0mm 0.0 W/m2
00:12 46.0 °F /  7.8 °C 17.8 °F /  -7.9 °C 30.31in /  1026.3hPa Calm     32% 0.00in /  0mm 0.0 W/m2
00:18 45.9 °F /  7.7 °C 16.9 °F /  -8.4 °C 30.31in /  1026.3hPa Calm     31% 0.00in /  0mm 0.0 W/m2
00:24 45.7 °F /  7.6 °C 17.4 °F /  -8.1 °C 30.31in /  1026.3hPa Calm     32% 0.00in /  0mm 0.0 W/m2
00:30 45.3 °F /  7.4 °C 17.2 °F /  -8.2 °C 30.31in /  1026.3hPa Calm     32% 0.00in /  0mm 0.0 W/m2
00:36 45.3 °F /  7.4 °C 18.0 °F /  -7.8 °C 30.31in /  1026.3hPa Calm   1.0mph /  1.6km/h 33% 0.00in /  0mm 0.0 W/m2
00:42 45.1 °F /  7.3 °C 17.8 °F /  -7.9 °C 30.31in /  1026.3hPa Calm   1.0mph /  1.6km/h 33% 0.00in /  0mm 0.0 W/m2
00:49 45.0 °F /  7.2 °C 17.6 °F /  -8 °C 30.31in /  1026.3hPa Calm     33% 0.00in /  0mm 0.0 W/m2
00:55 44.8 °F /  7.1 °C 17.4 °F /  -8.1 °C 30.31in /  1026.3hPa Calm     33% 0.00in /  0mm 0.0 W/m2
01:01 44.8 °F /  7.1 °C 18.1 °F /  -7.7 °C 30.31in /  1026.3hPa Calm   2.0mph /  3.2km/h 34% 0.00in /  0mm 0.0 W/m2
01:07 44.4 °F /  6.9 °C 17.1 °F /  -8.3 °C 30.31in /  1026.3hPa Calm   2.0mph /  3.2km/h 33% 0.00in /  0mm 0.0 W/m2
01:13 44.4 °F /  6.9 °C 17.1 °F /  -8.3 °C 30.31in /  1026.3hPa Calm   2.0mph /  3.2km/h 33% 0.00in /  0mm 0.0 W/m2
01:19 44.1 °F /  6.7 °C 16.7 °F /  -8.5 °C 30.31in /  1026.3hPa Calm   4.0mph /  6.4km/h 33% 0.00in /  0mm 0.0 W/m2
01:25 43.9 °F /  6.6 °C 17.2 °F /  -8.2 °C 30.31in /  1026.3hPa Calm   1.0mph /  1.6km/h 34% 0.00in /  0mm 0.0 W/m2
01:32 43.7 °F /  6.5 °C 17.2 °F /  -8.2 °C 30.31in /  1026.3hPa Calm     34% 0.00in /  0mm 0.0 W/m2
01:38 43.5 °F /  6.4 °C 17.1 °F /  -8.3 °C 30.31in /  1026.3hPa Calm   1.0mph /  1.6km/h 34% 0.00in /  0mm 0.0 W/m2
01:44 43.2 °F /  6.2 °C 16.7 °F /  -8.5 °C 30.31in /  1026.3hPa Calm     34% 0.00in /  0mm 0.0 W/m2
01:50 43.0 °F /  6.1 °C 16.5 °F /  -8.6 °C 30.31in /  1026.3hPa Calm     34% 0.00in /  0mm 0.0 W/m2
01:56 43.0 °F /  6.1 °C 15.8 °F /  -9 °C 30.30in /  1026hPa Calm   2.0mph /  3.2km/h 33% 0.00in /  0mm 0.0 W/m2
02:02 42.6 °F /  5.9 °C 15.4 °F /  -9.2 °C 30.30in /  1026hPa Calm     33% 0.00in /  0mm 0.0 W/m2
02:08 42.4 °F /  5.8 °C 15.4 °F /  -9.2 °C 30.30in /  1026hPa Calm     33% 0.00in /  0mm 0.0 W/m2
02:14 42.3 °F /  5.7 °C 15.3 °F /  -9.3 °C 30.29in /  1025.6hPa Calm   2.0mph /  3.2km/h 33% 0.00in /  0mm 0.0 W/m2
02:21 42.3 °F /  5.7 °C 15.3 °F /  -9.3 °C 30.29in /  1025.6hPa Calm   2.0mph /  3.2km/h 33% 0.00in /  0mm 0.0 W/m2
02:27 42.3 °F /  5.7 °C 15.3 °F /  -9.3 °C 30.29in /  1025.6hPa Calm   3.0mph /  4.8km/h 33% 0.00in /  0mm 0.0 W/m2
02:33 42.3 °F /  5.7 °C 15.8 °F /  -9 °C 30.30in /  1026hPa Calm     34% 0.00in /  0mm 0.0 W/m2
02:39 42.1 °F /  5.6 °C 15.1 °F /  -9.4 °C 30.30in /  1026hPa East 0.9mph /  1.4km/h 1.0mph /  1.6km/h 33% 0.00in /  0mm 0.0 W/m2
02:45 42.1 °F /  5.6 °C 14.4 °F /  -9.8 °C 30.29in /  1025.6hPa Calm   1.0mph /  1.6km/h 32% 0.00in /  0mm 0.0 W/m2
02:51 42.1 °F /  5.6 °C 14.4 °F /  -9.8 °C 30.30in /  1026hPa Calm   2.0mph /  3.2km/h 32% 0.00in /  0mm 0.0 W/m2
02:58 42.1 °F /  5.6 °C 14.4 °F /  -9.8 °C 30.29in /  1025.6hPa Calm   2.0mph /  3.2km/h 32% 0.00in /  0mm 0.0 W/m2
03:04 41.7 °F /  5.4 °C 14.7 °F /  -9.6 °C 30.29in /  1025.6hPa Calm   2.0mph /  3.2km/h 33% 0.00in /  0mm 0.0 W/m2
03:06 41.7 °F /  5.4 °C 14.0 °F /  -10 °C 30.29in /  1025.6hPa Calm   1.0mph /  1.6km/h 32% 0.00in /  0mm 0.0 W/m2
03:12 41.5 °F /  5.3 °C 14.5 °F /  -9.7 °C 30.28in /  1025.3hPa Calm   1.0mph /  1.6km/h 33% 0.00in /  0mm 0.0 W/m2
03:18 41.5 °F /  5.3 °C 14.5 °F /  -9.7 °C 30.29in /  1025.6hPa Calm   6.0mph /  9.7km/h 33% 0.00in /  0mm 0.0 W/m2
03:24 41.5 °F /  5.3 °C 14.5 °F /  -9.7 °C 30.28in /  1025.3hPa Calm     33% 0.00in /  0mm 0.0 W/m2
03:30 41.4 °F /  5.2 °C 14.4 °F /  -9.8 °C 30.28in /  1025.3hPa ESE 2.0mph /  3.2km/h 2.0mph /  3.2km/h 33% 0.00in /  0mm 0.0 W/m2
03:36 41.4 °F /  5.2 °C 13.6 °F /  -10.2 °C 30.28in /  1025.3hPa Calm     32% 0.00in /  0mm 0.0 W/m2
03:43 41.4 °F /  5.2 °C 14.4 °F /  -9.8 °C 30.28in /  1025.3hPa Calm     33% 0.00in /  0mm 0.0 W/m2
03:49 41.4 °F /  5.2 °C 10.8 °F /  -11.8 °C 30.28in /  1025.3hPa Calm   2.0mph /  3.2km/h 28% 0.00in /  0mm 0.0 W/m2
03:55 41.2 °F /  5.1 °C 11.3 °F /  -11.5 °C 30.28in /  1025.3hPa Calm   5.0mph /  8km/h 29% 0.00in /  0mm 0.0 W/m2
04:01 41.0 °F /  5 °C 10.4 °F /  -12 °C 30.28in /  1025.3hPa Calm     28% 0.00in /  0mm 0.0 W/m2
04:07 40.5 °F /  4.7 °C 11.5 °F /  -11.4 °C 30.28in /  1025.3hPa Calm     30% 0.00in /  0mm 0.0 W/m2
04:13 39.9 °F /  4.4 °C 10.9 °F /  -11.7 °C 30.28in /  1025.3hPa ESE 0.9mph /  1.4km/h 5.0mph /  8km/h 30% 0.00in /  0mm 0.0 W/m2
04:19 39.9 °F /  4.4 °C 9.5 °F /  -12.5 °C 30.28in /  1025.3hPa Calm     28% 0.00in /  0mm 0.0 W/m2
04:25 39.9 °F /  4.4 °C 10.2 °F /  -12.1 °C 30.28in /  1025.3hPa Calm     29% 0.00in /  0mm 0.0 W/m2
04:31 39.6 °F /  4.2 °C 11.5 °F /  -11.4 °C 30.28in /  1025.3hPa Calm     31% 0.00in /  0mm 0.0 W/m2
04:37 39.0 °F /  3.9 °C 10.2 °F /  -12.1 °C 30.28in /  1025.3hPa Calm   1.0mph /  1.6km/h 30% 0.00in /  0mm 0.0 W/m2
04:43 38.7 °F /  3.7 °C 9.9 °F /  -12.3 °C 30.28in /  1025.3hPa Calm   1.0mph /  1.6km/h 30% 0.00in /  0mm 0.0 W/m2
04:50 38.3 °F /  3.5 °C 10.2 °F /  -12.1 °C 30.29in /  1025.6hPa Calm     31% 0.00in /  0mm 0.0 W/m2
04:56 37.6 °F /  3.1 °C 9.7 °F /  -12.4 °C 30.29in /  1025.6hPa Calm     31% 0.00in /  0mm 0.0 W/m2
05:02 36.7 °F /  2.6 °C 9.5 °F /  -12.5 °C 30.29in /  1025.6hPa Calm     32% 0.00in /  0mm 0.0 W/m2
05:08 36.0 °F /  2.2 °C 9.7 °F /  -12.4 °C 30.30in /  1026hPa Calm     33% 0.00in /  0mm 0.0 W/m2
05:14 35.4 °F /  1.9 °C 9.9 °F /  -12.3 °C 30.30in /  1026hPa Calm     34% 0.00in /  0mm 0.0 W/m2
05:20 35.1 °F /  1.7 °C 10.2 °F /  -12.1 °C 30.29in /  1025.6hPa Calm   1.0mph /  1.6km/h 35% 0.00in /  0mm 0.0 W/m2
05:26 35.1 °F /  1.7 °C 9.5 °F /  -12.5 °C 30.30in /  1026hPa Calm     34% 0.00in /  0mm 0.0 W/m2
05:32 35.1 °F /  1.7 °C 9.5 °F /  -12.5 °C 30.30in /  1026hPa Calm     34% 0.00in /  0mm 0.0 W/m2
05:39 34.7 °F /  1.5 °C 8.6 °F /  -13 °C 30.30in /  1026hPa Calm     33% 0.00in /  0mm 0.0 W/m2
05:45 34.3 °F /  1.3 °C 9.0 °F /  -12.8 °C 30.30in /  1026hPa Calm     34% 0.00in /  0mm 0.0 W/m2
05:47 34.2 °F /  1.2 °C 9.3 °F /  -12.6 °C 30.30in /  1026hPa Calm     35% 0.00in /  0mm 0.0 W/m2
05:53 33.6 °F /  0.9 °C 8.2 °F /  -13.2 °C 30.31in /  1026.3hPa Calm     34% 0.00in /  0mm 0.0 W/m2
05:59 33.4 °F /  0.8 °C 8.8 °F /  -12.9 °C 30.31in /  1026.3hPa Calm     35% 0.00in /  0mm 0.0 W/m2
06:05 33.3 °F /  0.7 °C 9.1 °F /  -12.7 °C 30.31in /  1026.3hPa Calm     36% 0.00in /  0mm 0.0 W/m2
06:11 32.7 °F /  0.4 °C 9.3 °F /  -12.6 °C 30.32in /  1026.6hPa Calm     37% 0.00in /  0mm 0.0 W/m2
06:17 32.5 °F /  0.3 °C 9.1 °F /  -12.7 °C 30.32in /  1026.6hPa Calm     37% 0.00in /  0mm 0.0 W/m2
06:24 32.5 °F /  0.3 °C 9.1 °F /  -12.7 °C 30.32in /  1026.6hPa Calm     37% 0.00in /  0mm 0.0 W/m2
06:30 32.5 °F /  0.3 °C 9.1 °F /  -12.7 °C 30.32in /  1026.6hPa Calm     37% 0.00in /  0mm 0.0 W/m2
06:36 32.4 °F /  0.2 °C 9.0 °F /  -12.8 °C 30.33in /  1027hPa Calm     37% 0.00in /  0mm 5.0 W/m2
06:42 32.2 °F /  0.1 °C 9.5 °F /  -12.5 °C 30.33in /  1027hPa Calm     38% 0.00in /  0mm 7.0 W/m2
06:48 32.2 °F /  0.1 °C 10.0 °F /  -12.2 °C 30.33in /  1027hPa Calm     39% 0.00in /  0mm 9.0 W/m2
06:54 31.8 °F /  -0.1 °C 10.2 °F /  -12.1 °C 30.34in /  1027.3hPa SSW 2.0mph /  3.2km/h 2.0mph /  3.2km/h 40% 0.00in /  0mm 11.0 W/m2
07:00 31.8 °F /  -0.1 °C 10.2 °F /  -12.1 °C 30.35in /  1027.7hPa Calm     40% 0.00in /  0mm 12.0 W/m2
07:07 32.2 °F /  0.1 °C 11.1 °F /  -11.6 °C 30.35in /  1027.7hPa Calm     41% 0.00in /  0mm 12.0 W/m2
07:13 32.4 °F /  0.2 °C 11.3 °F /  -11.5 °C 30.36in /  1028hPa Calm     41% 0.00in /  0mm 14.0 W/m2
07:19 32.7 °F /  0.4 °C 11.7 °F /  -11.3 °C 30.36in /  1028hPa Calm     41% 0.00in /  0mm 16.0 W/m2
07:25 33.3 °F /  0.7 °C 11.5 °F /  -11.4 °C 30.36in /  1028hPa Calm     40% 0.00in /  0mm 16.0 W/m2
07:31 33.6 °F /  0.9 °C 11.8 °F /  -11.2 °C 30.36in /  1028hPa Calm   1.0mph /  1.6km/h 40% 0.00in /  0mm 18.0 W/m2
07:37 34.9 °F /  1.6 °C 12.4 °F /  -10.9 °C 30.36in /  1028hPa Calm   2.0mph /  3.2km/h 39% 0.00in /  0mm 19.0 W/m2
07:43 36.3 °F /  2.4 °C 13.1 °F /  -10.5 °C 30.36in /  1028hPa Calm     38% 0.00in /  0mm 19.0 W/m2
07:50 37.9 °F /  3.3 °C 14.0 °F /  -10 °C 30.37in /  1028.3hPa Calm   2.0mph /  3.2km/h 37% 0.00in /  0mm 21.0 W/m2
07:56 39.9 °F /  4.4 °C 14.5 °F /  -9.7 °C 30.37in /  1028.3hPa Calm     35% 0.00in /  0mm 192.0 W/m2
08:02 42.3 °F /  5.7 °C 15.8 °F /  -9 °C 30.37in /  1028.3hPa Calm   3.0mph /  4.8km/h 34% 0.00in /  0mm 313.0 W/m2
08:08 45.3 °F /  7.4 °C 19.9 °F /  -6.7 °C 30.38in /  1028.7hPa ESE 2.0mph /  3.2km/h 5.0mph /  8km/h 36% 0.00in /  0mm 336.0 W/m2
08:14 48.6 °F /  9.2 °C 20.8 °F /  -6.2 °C 30.38in /  1028.7hPa Calm   3.0mph /  4.8km/h 33% 0.00in /  0mm 353.0 W/m2
08:20 50.7 °F /  10.4 °C 21.2 °F /  -6 °C 30.38in /  1028.7hPa Calm   6.0mph /  9.7km/h 31% 0.00in /  0mm 373.0 W/m2
08:26 52.3 °F /  11.3 °C 21.0 °F /  -6.1 °C 30.38in /  1028.7hPa ENE 2.9mph /  4.7km/h 7.0mph /  11.3km/h 29% 0.00in /  0mm 396.0 W/m2
08:39 54.5 °F /  12.5 °C 21.2 °F /  -6 °C 30.38in /  1028.7hPa ENE 6.0mph /  9.7km/h 7.0mph /  11.3km/h 27% 0.00in /  0mm 432.0 W/m2
08:45 55.2 °F /  12.9 °C 20.8 °F /  -6.2 °C 30.39in /  1029hPa Calm   2.0mph /  3.2km/h 26% 0.00in /  0mm 450.0 W/m2
08:51 56.1 °F /  13.4 °C 20.8 °F /  -6.2 °C 30.39in /  1029hPa Calm   7.0mph /  11.3km/h 25% 0.00in /  0mm 468.0 W/m2
08:57 56.8 °F /  13.8 °C 21.4 °F /  -5.9 °C 30.39in /  1029hPa NE 2.9mph /  4.7km/h 4.0mph /  6.4km/h 25% 0.00in /  0mm 483.0 W/m2
09:03 57.6 °F /  14.2 °C 21.0 °F /  -6.1 °C 30.40in /  1029.3hPa North 4.0mph /  6.4km/h 9.0mph /  14.5km/h 24% 0.00in /  0mm 503.0 W/m2
09:09 58.3 °F /  14.6 °C 20.7 °F /  -6.3 °C 30.40in /  1029.3hPa Calm   7.0mph /  11.3km/h 23% 0.00in /  0mm 519.0 W/m2
09:15 59.2 °F /  15.1 °C 21.4 °F /  -5.9 °C 30.40in /  1029.3hPa ESE 10.1mph /  16.3km/h 10.1mph /  16.3km/h 23% 0.00in /  0mm 534.0 W/m2
09:21 59.4 °F /  15.2 °C 20.5 °F /  -6.4 °C 30.40in /  1029.3hPa East 4.9mph /  7.9km/h 7.0mph /  11.3km/h 22% 0.00in /  0mm 548.0 W/m2
09:27 59.7 °F /  15.4 °C 20.8 °F /  -6.2 °C 30.40in /  1029.3hPa ESE 2.0mph /  3.2km/h 7.0mph /  11.3km/h 22% 0.00in /  0mm 563.0 W/m2
09:34 59.7 °F /  15.4 °C 19.8 °F /  -6.8 °C 30.40in /  1029.3hPa East 0.9mph /  1.4km/h 11.0mph /  17.7km/h 21% 0.00in /  0mm 577.0 W/m2
09:40 59.5 °F /  15.3 °C 19.6 °F /  -6.9 °C 30.39in /  1029hPa Calm   10.0mph /  16.1km/h 21% 0.00in /  0mm 592.0 W/m2
09:46 60.1 °F /  15.6 °C 19.9 °F /  -6.7 °C 30.39in /  1029hPa NE 8.1mph /  13km/h 8.1mph /  13km/h 21% 0.00in /  0mm 605.0 W/m2
09:52 60.1 °F /  15.6 °C 18.9 °F /  -7.3 °C 30.39in /  1029hPa Calm   8.0mph /  12.9km/h 20% 0.00in /  0mm 617.0 W/m2
09:58 60.3 °F /  15.7 °C 17.8 °F /  -7.9 °C 30.39in /  1029hPa NNE 4.9mph /  7.9km/h 9.0mph /  14.5km/h 19% 0.00in /  0mm 626.0 W/m2
10:04 60.6 °F /  15.9 °C 18.1 °F /  -7.7 °C 30.39in /  1029hPa NE 4.0mph /  6.4km/h 8.0mph /  12.9km/h 19% 0.00in /  0mm 638.0 W/m2
10:10 61.2 °F /  16.2 °C 18.5 °F /  -7.5 °C 30.38in /  1028.7hPa NNE 0.9mph /  1.4km/h 10.0mph /  16.1km/h 19% 0.00in /  0mm 649.0 W/m2
10:16 61.3 °F /  16.3 °C 17.4 °F /  -8.1 °C 30.38in /  1028.7hPa ESE 4.0mph /  6.4km/h 8.0mph /  12.9km/h 18% 0.00in /  0mm 659.0 W/m2
10:23 61.7 °F /  16.5 °C 16.3 °F /  -8.7 °C 30.38in /  1028.7hPa ENE 6.0mph /  9.7km/h 10.0mph /  16.1km/h 17% 0.00in /  0mm 670.0 W/m2
10:29 62.1 °F /  16.7 °C 16.7 °F /  -8.5 °C 30.38in /  1028.7hPa ENE 2.0mph /  3.2km/h 7.0mph /  11.3km/h 17% 0.00in /  0mm 677.0 W/m2
10:35 62.4 °F /  16.9 °C 15.6 °F /  -9.1 °C 30.39in /  1029hPa ESE 2.0mph /  3.2km/h 11.0mph /  17.7km/h 16% 0.00in /  0mm 684.0 W/m2
10:41 63.0 °F /  17.2 °C 16.0 °F /  -8.9 °C 30.38in /  1028.7hPa Calm   8.0mph /  12.9km/h 16% 0.00in /  0mm 691.0 W/m2
10:47 63.3 °F /  17.4 °C 16.3 °F /  -8.7 °C 30.38in /  1028.7hPa Calm   10.0mph /  16.1km/h 16% 0.00in /  0mm 698.0 W/m2
10:53 63.9 °F /  17.7 °C 15.3 °F /  -9.3 °C 30.38in /  1028.7hPa ENE 0.9mph /  1.4km/h 5.0mph /  8km/h 15% 0.00in /  0mm 701.0 W/m2
10:59 64.2 °F /  17.9 °C 12.4 °F /  -10.9 °C 30.38in /  1028.7hPa NE 4.0mph /  6.4km/h 5.0mph /  8km/h 13% 0.00in /  0mm 710.0 W/m2
11:05 64.4 °F /  18 °C 14.2 °F /  -9.9 °C 30.38in /  1028.7hPa NE 0.9mph /  1.4km/h 8.0mph /  12.9km/h 14% 0.00in /  0mm 714.0 W/m2
11:11 64.8 °F /  18.2 °C 17.4 °F /  -8.1 °C 30.38in /  1028.7hPa Calm   8.0mph /  12.9km/h 16% 0.00in /  0mm 715.0 W/m2
11:17 65.1 °F /  18.4 °C 19.2 °F /  -7.1 °C 30.38in /  1028.7hPa NNE 4.0mph /  6.4km/h 7.0mph /  11.3km/h 17% 0.00in /  0mm 719.0 W/m2
11:24 65.8 °F /  18.8 °C 21.2 °F /  -6 °C 30.37in /  1028.3hPa NE 2.0mph /  3.2km/h 7.0mph /  11.3km/h 18% 0.00in /  0mm 722.0 W/m2
11:30 66.2 °F /  19 °C 20.1 °F /  -6.6 °C 30.37in /  1028.3hPa ENE 0.9mph /  1.4km/h 8.0mph /  12.9km/h 17% 0.00in /  0mm 724.0 W/m2
11:36 66.4 °F /  19.1 °C 20.3 °F /  -6.5 °C 30.37in /  1028.3hPa Calm   12.0mph /  19.3km/h 17% 0.00in /  0mm 726.0 W/m2
11:42 66.6 °F /  19.2 °C 21.7 °F /  -5.7 °C 30.36in /  1028hPa NNE 4.0mph /  6.4km/h 8.0mph /  12.9km/h 18% 0.00in /  0mm 724.0 W/m2
11:48 66.9 °F /  19.4 °C 20.7 °F /  -6.3 °C 30.36in /  1028hPa Calm   4.0mph /  6.4km/h 17% 0.00in /  0mm 726.0 W/m2
11:54 67.5 °F /  19.7 °C 21.2 °F /  -6 °C 30.36in /  1028hPa Calm   9.0mph /  14.5km/h 17% 0.00in /  0mm 724.0 W/m2
12:00 67.6 °F /  19.8 °C 22.6 °F /  -5.2 °C 30.35in /  1027.7hPa East 4.0mph /  6.4km/h 5.0mph /  8km/h 18% 0.00in /  0mm 724.0 W/m2
12:07 68.2 °F /  20.1 °C 17.2 °F /  -8.2 °C 30.35in /  1027.7hPa NE 6.0mph /  9.7km/h 9.0mph /  14.5km/h 14% 0.00in /  0mm 724.0 W/m2
12:13 68.4 °F /  20.2 °C 20.5 °F /  -6.4 °C 30.35in /  1027.7hPa NE 2.9mph /  4.7km/h 11.0mph /  17.7km/h 16% 0.00in /  0mm 721.0 W/m2
12:19 68.5 °F /  20.3 °C 19.0 °F /  -7.2 °C 30.34in /  1027.3hPa ESE 0.9mph /  1.4km/h 9.0mph /  14.5km/h 15% 0.00in /  0mm 715.0 W/m2
12:25 68.4 °F /  20.2 °C 17.2 °F /  -8.2 °C 30.34in /  1027.3hPa ENE 0.9mph /  1.4km/h 3.0mph /  4.8km/h 14% 0.00in /  0mm 712.0 W/m2
12:31 68.5 °F /  20.3 °C 19.0 °F /  -7.2 °C 30.34in /  1027.3hPa Calm   8.0mph /  12.9km/h 15% 0.00in /  0mm 705.0 W/m2
12:37 68.5 °F /  20.3 °C 19.0 °F /  -7.2 °C 30.33in /  1027hPa South 2.0mph /  3.2km/h 8.0mph /  12.9km/h 15% 0.00in /  0mm 700.0 W/m2
12:43 68.5 °F /  20.3 °C 17.4 °F /  -8.1 °C 30.33in /  1027hPa NE 0.9mph /  1.4km/h 7.0mph /  11.3km/h 14% 0.00in /  0mm 696.0 W/m2
12:49 68.7 °F /  20.4 °C 15.8 °F /  -9 °C 30.33in /  1027hPa North 2.0mph /  3.2km/h 8.0mph /  12.9km/h 13% 0.00in /  0mm 689.0 W/m2
12:56 68.7 °F /  20.4 °C 15.8 °F /  -9 °C 30.32in /  1026.6hPa Calm   6.0mph /  9.7km/h 13% 0.00in /  0mm 686.0 W/m2
13:02 69.1 °F /  20.6 °C 14.4 °F /  -9.8 °C 30.32in /  1026.6hPa NE 0.9mph /  1.4km/h 8.0mph /  12.9km/h 12% 0.00in /  0mm 673.0 W/m2
13:08 69.3 °F /  20.7 °C 16.3 °F /  -8.7 °C 30.31in /  1026.3hPa ENE 10.1mph /  16.3km/h 10.1mph /  16.3km/h 13% 0.00in /  0mm 666.0 W/m2
13:14 69.3 °F /  20.7 °C 16.3 °F /  -8.7 °C 30.30in /  1026hPa East 8.1mph /  13km/h 10.0mph /  16.1km/h 13% 0.00in /  0mm 657.0 W/m2
13:20 68.9 °F /  20.5 °C 16.0 °F /  -8.9 °C 30.31in /  1026.3hPa NNE 2.9mph /  4.7km/h 10.0mph /  16.1km/h 13% 0.00in /  0mm 645.0 W/m2
13:26 68.5 °F /  20.3 °C 15.8 °F /  -9 °C 30.30in /  1026hPa SSE 2.0mph /  3.2km/h 11.0mph /  17.7km/h 13% 0.00in /  0mm 636.0 W/m2
13:32 68.5 °F /  20.3 °C 15.8 °F /  -9 °C 30.31in /  1026.3hPa ENE 2.0mph /  3.2km/h 7.0mph /  11.3km/h 13% 0.00in /  0mm 626.0 W/m2
13:38 68.7 °F /  20.4 °C 14.0 °F /  -10 °C 30.30in /  1026hPa NE 6.9mph /  11.1km/h 12.0mph /  19.3km/h 12% 0.00in /  0mm 615.0 W/m2
13:44 68.5 °F /  20.3 °C 13.8 °F /  -10.1 °C 30.30in /  1026hPa ENE 10.1mph /  16.3km/h 10.1mph /  16.3km/h 12% 0.00in /  0mm 605.0 W/m2
13:51 68.5 °F /  20.3 °C 15.8 °F /  -9 °C 30.30in /  1026hPa East 8.1mph /  13km/h 9.0mph /  14.5km/h 13% 0.00in /  0mm 591.0 W/m2
13:57 68.5 °F /  20.3 °C 13.8 °F /  -10.1 °C 30.30in /  1026hPa NE 2.0mph /  3.2km/h 7.0mph /  11.3km/h 12% 0.00in /  0mm 573.0 W/m2
14:03 68.7 °F /  20.4 °C 15.8 °F /  -9 °C 30.31in /  1026.3hPa NNE 0.9mph /  1.4km/h 6.0mph /  9.7km/h 13% 0.00in /  0mm 564.0 W/m2
14:09 68.7 °F /  20.4 °C 14.0 °F /  -10 °C 30.31in /  1026.3hPa ENE 6.0mph /  9.7km/h 8.0mph /  12.9km/h 12% 0.00in /  0mm 548.0 W/m2
14:15 68.5 °F /  20.3 °C 13.8 °F /  -10.1 °C 30.31in /  1026.3hPa NE 0.9mph /  1.4km/h 6.0mph /  9.7km/h 12% 0.00in /  0mm 534.0 W/m2
14:21 68.7 °F /  20.4 °C 15.8 °F /  -9 °C 30.32in /  1026.6hPa NNE 0.9mph /  1.4km/h 4.0mph /  6.4km/h 13% 0.00in /  0mm 519.0 W/m2
14:27 68.5 °F /  20.3 °C 13.8 °F /  -10.1 °C 30.32in /  1026.6hPa NE 0.9mph /  1.4km/h 8.0mph /  12.9km/h 12% 0.00in /  0mm 503.0 W/m2
14:33 68.4 °F /  20.2 °C 13.8 °F /  -10.1 °C 30.31in /  1026.3hPa Calm   7.0mph /  11.3km/h 12% 0.00in /  0mm 483.0 W/m2
14:40 68.4 °F /  20.2 °C 13.8 °F /  -10.1 °C 30.31in /  1026.3hPa NE 6.0mph /  9.7km/h 9.0mph /  14.5km/h 12% 0.00in /  0mm 468.0 W/m2
14:46 68.2 °F /  20.1 °C 13.6 °F /  -10.2 °C 30.31in /  1026.3hPa ESE 2.0mph /  3.2km/h 3.0mph /  4.8km/h 12% 0.00in /  0mm 448.0 W/m2
14:52 68.4 °F /  20.2 °C 17.2 °F /  -8.2 °C 30.31in /  1026.3hPa NNE 0.9mph /  1.4km/h 5.0mph /  8km/h 14% 0.00in /  0mm 432.0 W/m2
14:58 68.2 °F /  20.1 °C 17.2 °F /  -8.2 °C 30.31in /  1026.3hPa ESE 4.9mph /  7.9km/h 6.0mph /  9.7km/h 14% 0.00in /  0mm 411.0 W/m2
15:04 67.8 °F /  19.9 °C 18.5 °F /  -7.5 °C 30.31in /  1026.3hPa East 2.0mph /  3.2km/h 3.0mph /  4.8km/h 15% 0.00in /  0mm 396.0 W/m2
15:10 67.8 °F /  19.9 °C 18.5 °F /  -7.5 °C 30.32in /  1026.6hPa ENE 0.9mph /  1.4km/h 2.0mph /  3.2km/h 15% 0.00in /  0mm 374.0 W/m2
15:16 67.6 °F /  19.8 °C 18.3 °F /  -7.6 °C 30.32in /  1026.6hPa ENE 0.9mph /  1.4km/h 4.0mph /  6.4km/h 15% 0.00in /  0mm 353.0 W/m2
15:23 67.5 °F /  19.7 °C 19.8 °F /  -6.8 °C 30.32in /  1026.6hPa ESE 2.9mph /  4.7km/h 6.0mph /  9.7km/h 16% 0.00in /  0mm 40.0 W/m2
15:29 67.3 °F /  19.6 °C 21.0 °F /  -6.1 °C 30.33in /  1027hPa Calm   3.0mph /  4.8km/h 17% 0.00in /  0mm 37.0 W/m2
15:35 66.9 °F /  19.4 °C 19.2 °F /  -7.1 °C 30.33in /  1027hPa North 0.9mph /  1.4km/h 6.0mph /  9.7km/h 16% 0.00in /  0mm 35.0 W/m2
15:41 66.7 °F /  19.3 °C 20.5 °F /  -6.4 °C 30.33in /  1027hPa Calm   6.0mph /  9.7km/h 17% 0.00in /  0mm 33.0 W/m2
15:47 66.6 °F /  19.2 °C 20.3 °F /  -6.5 °C 30.33in /  1027hPa ESE 4.0mph /  6.4km/h 7.0mph /  11.3km/h 17% 0.00in /  0mm 32.0 W/m2
15:53 66.2 °F /  19 °C 20.1 °F /  -6.6 °C 30.33in /  1027hPa East 0.9mph /  1.4km/h 3.0mph /  4.8km/h 17% 0.00in /  0mm 30.0 W/m2
15:59 65.8 °F /  18.8 °C 19.8 °F /  -6.8 °C 30.33in /  1027hPa Calm   7.0mph /  11.3km/h 17% 0.00in /  0mm 25.0 W/m2
16:05 65.7 °F /  18.7 °C 19.6 °F /  -6.9 °C 30.33in /  1027hPa Calm   3.0mph /  4.8km/h 17% 0.00in /  0mm 21.0 W/m2
16:12 65.3 °F /  18.5 °C 19.4 °F /  -7 °C 30.33in /  1027hPa East 0.9mph /  1.4km/h 2.0mph /  3.2km/h 17% 0.00in /  0mm 19.0 W/m2
16:18 64.9 °F /  18.3 °C 20.5 °F /  -6.4 °C 30.33in /  1027hPa Calm   3.0mph /  4.8km/h 18% 0.00in /  0mm 18.0 W/m2
16:24 64.6 °F /  18.1 °C 20.1 °F /  -6.6 °C 30.33in /  1027hPa ENE 0.9mph /  1.4km/h 4.0mph /  6.4km/h 18% 0.00in /  0mm 16.0 W/m2
16:30 64.2 °F /  17.9 °C 21.0 °F /  -6.1 °C 30.33in /  1027hPa Calm   4.0mph /  6.4km/h 19% 0.00in /  0mm 16.0 W/m2
16:36 64.0 °F /  17.8 °C 21.0 °F /  -6.1 °C 30.33in /  1027hPa East 0.9mph /  1.4km/h 3.0mph /  4.8km/h 19% 0.00in /  0mm 14.0 W/m2
16:42 63.7 °F /  17.6 °C 20.7 °F /  -6.3 °C 30.33in /  1027hPa Calm   3.0mph /  4.8km/h 19% 0.00in /  0mm 14.0 W/m2
16:48 63.3 °F /  17.4 °C 20.3 °F /  -6.5 °C 30.33in /  1027hPa Calm   6.0mph /  9.7km/h 19% 0.00in /  0mm 12.0 W/m2
16:54 62.8 °F /  17.1 °C 21.0 °F /  -6.1 °C 30.33in /  1027hPa ENE 0.9mph /  1.4km/h 1.0mph /  1.6km/h 20% 0.00in /  0mm 11.0 W/m2
17:01 62.4 °F /  16.9 °C 21.9 °F /  -5.6 °C 30.34in /  1027.3hPa ENE 2.0mph /  3.2km/h 7.0mph /  11.3km/h 21% 0.00in /  0mm 9.0 W/m2
17:07 61.9 °F /  16.6 °C 21.6 °F /  -5.8 °C 30.33in /  1027hPa ENE 4.0mph /  6.4km/h 6.0mph /  9.7km/h 21% 0.00in /  0mm 7.0 W/m2
17:13 61.2 °F /  16.2 °C 20.8 °F /  -6.2 °C 30.33in /  1027hPa ENE 0.9mph /  1.4km/h 6.0mph /  9.7km/h 21% 0.00in /  0mm 0.0 W/m2
17:19 60.6 °F /  15.9 °C 21.6 °F /  -5.8 °C 30.33in /  1027hPa Calm   1.0mph /  1.6km/h 22% 0.00in /  0mm 0.0 W/m2
17:25 60.1 °F /  15.6 °C 22.1 °F /  -5.5 °C 30.34in /  1027.3hPa Calm   1.0mph /  1.6km/h 23% 0.00in /  0mm 0.0 W/m2
17:31 59.5 °F /  15.3 °C 21.7 °F /  -5.7 °C 30.34in /  1027.3hPa East 0.9mph /  1.4km/h 4.0mph /  6.4km/h 23% 0.00in /  0mm 0.0 W/m2
17:37 59.2 °F /  15.1 °C 22.5 °F /  -5.3 °C 30.34in /  1027.3hPa Calm   1.0mph /  1.6km/h 24% 0.00in /  0mm 0.0 W/m2
17:43 58.6 °F /  14.8 °C 21.9 °F /  -5.6 °C 30.34in /  1027.3hPa Calm   3.0mph /  4.8km/h 24% 0.00in /  0mm 0.0 W/m2
17:50 58.3 °F /  14.6 °C 21.6 °F /  -5.8 °C 30.34in /  1027.3hPa East 0.9mph /  1.4km/h 10.0mph /  16.1km/h 24% 0.00in /  0mm 0.0 W/m2
17:56 57.7 °F /  14.3 °C 22.1 °F /  -5.5 °C 30.34in /  1027.3hPa ENE 2.0mph /  3.2km/h 4.0mph /  6.4km/h 25% 0.00in /  0mm 0.0 W/m2
18:02 57.6 °F /  14.2 °C 21.9 °F /  -5.6 °C 30.34in /  1027.3hPa Calm   3.0mph /  4.8km/h 25% 0.00in /  0mm 0.0 W/m2
18:08 57.2 °F /  14 °C 21.7 °F /  -5.7 °C 30.35in /  1027.7hPa ESE 2.0mph /  3.2km/h 2.0mph /  3.2km/h 25% 0.00in /  0mm 0.0 W/m2
18:14 56.8 °F /  13.8 °C 22.3 °F /  -5.4 °C 30.35in /  1027.7hPa ESE 2.0mph /  3.2km/h 5.0mph /  8km/h 26% 0.00in /  0mm 0.0 W/m2
18:23 56.5 °F /  13.6 °C 21.9 °F /  -5.6 °C 30.35in /  1027.7hPa NNE 2.0mph /  3.2km/h 5.0mph /  8km/h 26% 0.00in /  0mm 0.0 W/m2
18:28 56.1 °F /  13.4 °C 22.6 °F /  -5.2 °C 30.35in /  1027.7hPa Calm   3.0mph /  4.8km/h 27% 0.00in /  0mm 0.0 W/m2
18:35 55.8 °F /  13.2 °C 22.3 °F /  -5.4 °C 30.35in /  1027.7hPa NNE 0.9mph /  1.4km/h 5.0mph /  8km/h 27% 0.00in /  0mm 0.0 W/m2
18:41 55.4 °F /  13 °C 21.9 °F /  -5.6 °C 30.35in /  1027.7hPa ENE 2.9mph /  4.7km/h 7.0mph /  11.3km/h 27% 0.00in /  0mm 0.0 W/m2
18:47 55.0 °F /  12.8 °C 22.5 °F /  -5.3 °C 30.36in /  1028hPa NE 2.0mph /  3.2km/h 3.0mph /  4.8km/h 28% 0.00in /  0mm 0.0 W/m2
18:53 54.7 °F /  12.6 °C 22.3 °F /  -5.4 °C 30.36in /  1028hPa Calm   5.0mph /  8km/h 28% 0.00in /  0mm 0.0 W/m2
18:59 54.1 °F /  12.3 °C 22.6 °F /  -5.2 °C 30.36in /  1028hPa Calm   2.0mph /  3.2km/h 29% 0.00in /  0mm 0.0 W/m2
19:05 53.8 °F /  12.1 °C 23.0 °F /  -5 °C 30.36in /  1028hPa Calm   5.0mph /  8km/h 30% 0.00in /  0mm 0.0 W/m2
19:11 53.2 °F /  11.8 °C 22.6 °F /  -5.2 °C 30.37in /  1028.3hPa NE 0.9mph /  1.4km/h 8.0mph /  12.9km/h 30% 0.00in /  0mm 0.0 W/m2
19:17 52.9 °F /  11.6 °C 23.0 °F /  -5 °C 30.37in /  1028.3hPa Calm   4.0mph /  6.4km/h 31% 0.00in /  0mm 0.0 W/m2
19:23 52.5 °F /  11.4 °C 22.8 °F /  -5.1 °C 30.37in /  1028.3hPa ENE 0.9mph /  1.4km/h 6.0mph /  9.7km/h 31% 0.00in /  0mm 0.0 W/m2
19:30 52.3 °F /  11.3 °C 22.6 °F /  -5.2 °C 30.37in /  1028.3hPa NE 2.0mph /  3.2km/h 7.0mph /  11.3km/h 31% 0.00in /  0mm 0.0 W/m2
19:36 52.0 °F /  11.1 °C 23.0 °F /  -5 °C 30.37in /  1028.3hPa Calm   5.0mph /  8km/h 32% 0.00in /  0mm 0.0 W/m2
19:42 51.6 °F /  10.9 °C 22.6 °F /  -5.2 °C 30.38in /  1028.7hPa NE 4.0mph /  6.4km/h 7.0mph /  11.3km/h 32% 0.00in /  0mm 0.0 W/m2
19:48 51.3 °F /  10.7 °C 23.2 °F /  -4.9 °C 30.38in /  1028.7hPa NE 6.0mph /  9.7km/h 6.0mph /  9.7km/h 33% 0.00in /  0mm 0.0 W/m2
19:54 51.1 °F /  10.6 °C 23.0 °F /  -5 °C 30.38in /  1028.7hPa NNE 2.9mph /  4.7km/h 5.0mph /  8km/h 33% 0.00in /  0mm 0.0 W/m2
20:00 50.7 °F /  10.4 °C 22.6 °F /  -5.2 °C 30.38in /  1028.7hPa NNE 4.0mph /  6.4km/h 6.0mph /  9.7km/h 33% 0.00in /  0mm 0.0 W/m2
20:06 50.5 °F /  10.3 °C 23.2 °F /  -4.9 °C 30.38in /  1028.7hPa NNE 2.9mph /  4.7km/h 6.0mph /  9.7km/h 34% 0.00in /  0mm 0.0 W/m2
20:13 50.4 °F /  10.2 °C 23.0 °F /  -5 °C 30.38in /  1028.7hPa Calm   7.0mph /  11.3km/h 34% 0.00in /  0mm 0.0 W/m2
20:19 50.2 °F /  10.1 °C 22.8 °F /  -5.1 °C 30.38in /  1028.7hPa ENE 0.9mph /  1.4km/h 3.0mph /  4.8km/h 34% 0.00in /  0mm 0.0 W/m2
20:25 50.2 °F /  10.1 °C 22.8 °F /  -5.1 °C 30.38in /  1028.7hPa NNE 6.9mph /  11.1km/h 7.0mph /  11.3km/h 34% 0.00in /  0mm 0.0 W/m2
20:31 50.2 °F /  10.1 °C 22.8 °F /  -5.1 °C 30.38in /  1028.7hPa ENE 6.9mph /  11.1km/h 7.0mph /  11.3km/h 34% 0.00in /  0mm 0.0 W/m2
20:37 50.2 °F /  10.1 °C 22.8 °F /  -5.1 °C 30.37in /  1028.3hPa North 2.0mph /  3.2km/h 9.0mph /  14.5km/h 34% 0.00in /  0mm 0.0 W/m2
20:43 50.4 °F /  10.2 °C 23.0 °F /  -5 °C 30.38in /  1028.7hPa SE 4.9mph /  7.9km/h 6.0mph /  9.7km/h 34% 0.00in /  0mm 0.0 W/m2
20:49 50.2 °F /  10.1 °C 23.5 °F /  -4.7 °C 30.38in /  1028.7hPa ENE 0.9mph /  1.4km/h 4.0mph /  6.4km/h 35% 0.00in /  0mm 0.0 W/m2
20:55 50.0 °F /  10 °C 23.4 °F /  -4.8 °C 30.38in /  1028.7hPa NE 2.0mph /  3.2km/h 6.0mph /  9.7km/h 35% 0.00in /  0mm 0.0 W/m2
21:01 49.8 °F /  9.9 °C 23.2 °F /  -4.9 °C 30.38in /  1028.7hPa NE 4.0mph /  6.4km/h 7.0mph /  11.3km/h 35% 0.00in /  0mm 0.0 W/m2
21:07 49.8 °F /  9.9 °C 23.9 °F /  -4.5 °C 30.37in /  1028.3hPa NNE 2.0mph /  3.2km/h 6.0mph /  9.7km/h 36% 0.00in /  0mm 0.0 W/m2
21:13 49.8 °F /  9.9 °C 23.9 °F /  -4.5 °C 30.37in /  1028.3hPa Calm   5.0mph /  8km/h 36% 0.00in /  0mm 0.0 W/m2
21:19 49.8 °F /  9.9 °C 23.9 °F /  -4.5 °C 30.38in /  1028.7hPa Calm   8.0mph /  12.9km/h 36% 0.00in /  0mm 0.0 W/m2
21:25 50.0 °F /  10 °C 24.1 °F /  -4.4 °C 30.38in /  1028.7hPa Calm   4.0mph /  6.4km/h 36% 0.00in /  0mm 0.0 W/m2
21:32 49.8 °F /  9.9 °C 23.9 °F /  -4.5 °C 30.37in /  1028.3hPa Calm   6.0mph /  9.7km/h 36% 0.00in /  0mm 0.0 W/m2
21:38 49.8 °F /  9.9 °C 23.9 °F /  -4.5 °C 30.37in /  1028.3hPa East 2.0mph /  3.2km/h 4.0mph /  6.4km/h 36% 0.00in /  0mm 0.0 W/m2
21:44 49.8 °F /  9.9 °C 23.9 °F /  -4.5 °C 30.37in /  1028.3hPa Calm   3.0mph /  4.8km/h 36% 0.00in /  0mm 0.0 W/m2
21:50 49.8 °F /  9.9 °C 23.9 °F /  -4.5 °C 30.37in /  1028.3hPa ENE 2.9mph /  4.7km/h 9.0mph /  14.5km/h 36% 0.00in /  0mm 0.0 W/m2
21:56 50.0 °F /  10 °C 24.1 °F /  -4.4 °C 30.37in /  1028.3hPa NE 4.9mph /  7.9km/h 5.0mph /  8km/h 36% 0.00in /  0mm 0.0 W/m2
22:02 50.4 °F /  10.2 °C 24.4 °F /  -4.2 °C 30.38in /  1028.7hPa NNE 2.9mph /  4.7km/h 8.0mph /  12.9km/h 36% 0.00in /  0mm 0.0 W/m2
22:08 50.5 °F /  10.3 °C 23.9 °F /  -4.5 °C 30.37in /  1028.3hPa ENE 2.0mph /  3.2km/h 7.0mph /  11.3km/h 35% 0.00in /  0mm 0.0 W/m2
22:14 50.7 °F /  10.4 °C 24.1 °F /  -4.4 °C 30.38in /  1028.7hPa NNE 4.9mph /  7.9km/h 7.0mph /  11.3km/h 35% 0.00in /  0mm 0.0 W/m2
22:20 50.7 °F /  10.4 °C 24.1 °F /  -4.4 °C 30.38in /  1028.7hPa Calm   7.0mph /  11.3km/h 35% 0.00in /  0mm 0.0 W/m2
22:26 50.7 °F /  10.4 °C 24.1 °F /  -4.4 °C 30.38in /  1028.7hPa NE 2.0mph /  3.2km/h 5.0mph /  8km/h 35% 0.00in /  0mm 0.0 W/m2
22:32 50.5 °F /  10.3 °C 24.6 °F /  -4.1 °C 30.39in /  1029hPa Calm   3.0mph /  4.8km/h 36% 0.00in /  0mm 0.0 W/m2
22:38 50.2 °F /  10.1 °C 24.3 °F /  -4.3 °C 30.39in /  1029hPa ENE 4.9mph /  7.9km/h 5.0mph /  8km/h 36% 0.00in /  0mm 0.0 W/m2
22:44 49.8 °F /  9.9 °C 24.6 °F /  -4.1 °C 30.39in /  1029hPa Calm   6.0mph /  9.7km/h 37% 0.00in /  0mm 0.0 W/m2
22:50 49.6 °F /  9.8 °C 24.4 °F /  -4.2 °C 30.39in /  1029hPa NE 6.0mph /  9.7km/h 6.0mph /  9.7km/h 37% 0.00in /  0mm 0.0 W/m2
22:56 49.6 °F /  9.8 °C 25.0 °F /  -3.9 °C 30.39in /  1029hPa Calm   2.0mph /  3.2km/h 38% 0.00in /  0mm 0.0 W/m2
23:02 49.3 °F /  9.6 °C 24.8 °F /  -4 °C 30.39in /  1029hPa Calm   5.0mph /  8km/h 38% 0.00in /  0mm 0.0 W/m2
23:08 49.1 °F /  9.5 °C 24.6 °F /  -4.1 °C 30.40in /  1029.3hPa Calm   2.0mph /  3.2km/h 38% 0.00in /  0mm 0.0 W/m2
23:14 48.7 °F /  9.3 °C 24.8 °F /  -4 °C 30.40in /  1029.3hPa Calm     39% 0.00in /  0mm 0.0 W/m2
23:20 48.4 °F /  9.1 °C 24.6 °F /  -4.1 °C 30.40in /  1029.3hPa Calm     39% 0.00in /  0mm 0.0 W/m2
23:33 47.7 °F /  8.7 °C 24.4 °F /  -4.2 °C 30.40in /  1029.3hPa Calm     40% 0.00in /  0mm 0.0 W/m2
23:39 47.5 °F /  8.6 °C 25.0 °F /  -3.9 °C 30.40in /  1029.3hPa Calm     41% 0.00in /  0mm 0.0 W/m2
23:45 46.9 °F /  8.3 °C 25.0 °F /  -3.9 °C 30.40in /  1029.3hPa Calm     42% 0.00in /  0mm 0.0 W/m2
23:51 46.6 °F /  8.1 °C 25.3 °F /  -3.7 °C 30.41in /  1029.7hPa Calm     43% 0.00in /  0mm 0.0 W/m2
23:57 46.0 °F /  7.8 °C 24.8 °F /  -4 °C 30.41in /  1029.7hPa Calm     43% 0.00in /  0mm 0.0 W/m2
Olympia, Windhoek, Namibia
Compliments of Weather Underground - 3 mb